createdAt,value
2018-12-21T00:02:15.600Z,92.90
2018-12-21T00:04:44.132Z,92.90
2018-12-21T00:07:19.332Z,92.90
2018-12-21T00:09:47.893Z,92.80
2018-12-21T00:12:16.437Z,92.80
2018-12-21T00:14:45.070Z,92.90
2018-12-21T00:17:13.709Z,92.90
2018-12-21T00:19:42.256Z,92.90
2018-12-21T00:22:10.812Z,92.90
2018-12-21T00:24:39.342Z,92.90
2018-12-21T00:27:07.860Z,92.90
2018-12-21T00:29:36.404Z,92.90
2018-12-21T00:32:10.177Z,92.90
2018-12-21T00:34:43.875Z,92.80
2018-12-21T00:37:17.664Z,92.80
2018-12-21T00:39:51.636Z,92.90
2018-12-21T00:42:41.256Z,92.90
2018-12-21T00:45:14.038Z,92.60
2018-12-21T00:47:43.004Z,92.90
2018-12-21T00:50:11.552Z,92.80
2018-12-21T00:52:40.100Z,92.80
2018-12-21T00:55:08.872Z,92.80
2018-12-21T00:57:37.536Z,92.70
2018-12-21T01:00:06.812Z,92.80
2018-12-21T01:02:35.364Z,92.80
2018-12-21T01:05:04.157Z,92.80
2018-12-21T01:07:32.680Z,92.90
2018-12-21T01:10:01.963Z,92.90
2018-12-21T01:12:30.747Z,92.80
2018-12-21T01:14:59.279Z,92.80
2018-12-21T01:17:27.867Z,92.80
2018-12-21T01:19:56.595Z,92.80
2018-12-21T01:22:39.876Z,92.70
2018-12-21T01:25:08.523Z,92.80
2018-12-21T01:27:37.193Z,92.80
2018-12-21T01:30:06.487Z,92.80
2018-12-21T01:32:35.135Z,92.80
2018-12-21T01:35:03.929Z,92.80
2018-12-21T01:37:32.479Z,92.80
2018-12-21T01:40:01.023Z,92.90
2018-12-21T01:42:29.575Z,92.90
2018-12-21T01:44:58.111Z,92.90
2018-12-21T01:47:26.655Z,92.90
2018-12-21T01:49:55.235Z,92.80
2018-12-21T01:52:23.917Z,92.90
2018-12-21T01:54:52.566Z,92.90
2018-12-21T01:57:21.112Z,93.00
2018-12-21T01:59:49.663Z,93.20
2018-12-21T02:02:18.227Z,93.00
2018-12-21T02:04:46.775Z,92.90
2018-12-21T02:07:15.571Z,93.20
2018-12-21T02:09:44.120Z,92.90
2018-12-21T02:12:12.683Z,92.90
2018-12-21T02:14:41.255Z,92.90
2018-12-21T02:17:09.787Z,93.00
2018-12-21T02:19:38.347Z,93.00
2018-12-21T02:22:06.903Z,93.00
2018-12-21T02:24:35.455Z,93.00
2018-12-21T02:27:04.198Z,93.00
2018-12-21T02:30:04.036Z,93.00
2018-12-21T02:32:32.578Z,93.00
2018-12-21T02:35:01.130Z,92.90
2018-12-21T02:37:29.650Z,92.90
2018-12-21T02:39:58.180Z,92.90
2018-12-21T02:42:26.740Z,93.00
2018-12-21T02:44:55.268Z,93.00
2018-12-21T02:47:23.807Z,93.00
2018-12-21T02:49:52.337Z,93.00
2018-12-21T02:52:20.867Z,93.00
2018-12-21T02:54:49.398Z,93.00
2018-12-21T02:57:17.930Z,93.00
2018-12-21T02:59:46.451Z,93.00
2018-12-21T03:02:15.007Z,93.00
2018-12-21T03:04:43.538Z,93.00
2018-12-21T03:07:12.086Z,93.00
2018-12-21T03:09:40.636Z,92.80
2018-12-21T03:12:09.134Z,93.00
2018-12-21T03:14:37.640Z,92.90
2018-12-21T03:17:06.302Z,92.90
2018-12-21T03:19:38.311Z,92.90
2018-12-21T03:22:14.638Z,92.80
2018-12-21T03:24:37.418Z,92.80
2018-12-21T03:27:05.951Z,92.80
2018-12-21T03:29:34.522Z,92.80
2018-12-21T03:32:03.056Z,92.70
2018-12-21T03:34:31.626Z,92.80
2018-12-21T03:37:00.163Z,92.80
2018-12-21T03:39:28.738Z,92.90
2018-12-21T03:41:57.300Z,92.90
2018-12-21T03:44:25.831Z,92.90
2018-12-21T03:46:54.374Z,92.90
2018-12-21T03:49:22.929Z,92.90
2018-12-21T03:51:51.434Z,92.90
2018-12-21T03:54:19.959Z,92.80
2018-12-21T03:56:48.525Z,92.80
2018-12-21T03:59:17.047Z,92.80
2018-12-21T04:01:45.570Z,92.90
2018-12-21T04:04:14.098Z,92.90
2018-12-21T04:06:42.646Z,92.90
2018-12-21T04:09:11.181Z,92.90
2018-12-21T04:11:39.848Z,92.90
2018-12-21T04:14:08.369Z,92.90
2018-12-21T04:16:36.924Z,92.90
2018-12-21T04:19:05.466Z,92.90
2018-12-21T04:21:33.986Z,92.90
2018-12-21T04:24:02.562Z,92.90
2018-12-21T04:26:31.103Z,92.80
2018-12-21T04:28:59.664Z,92.90
2018-12-21T04:31:28.243Z,92.90
2018-12-21T04:33:56.781Z,92.90
2018-12-21T04:36:25.321Z,92.90
2018-12-21T04:38:53.878Z,92.90
2018-12-21T04:41:22.681Z,92.90
2018-12-21T04:43:51.234Z,92.90
2018-12-21T04:46:19.830Z,92.90
2018-12-21T04:48:48.469Z,92.90
2018-12-21T04:51:17.023Z,92.90
2018-12-21T04:53:45.588Z,92.90
2018-12-21T04:56:14.117Z,92.90
2018-12-21T04:58:42.647Z,92.90
2018-12-21T05:01:11.221Z,93.00
2018-12-21T05:03:39.749Z,93.00
2018-12-21T05:06:08.320Z,92.90
2018-12-21T05:08:36.901Z,92.80
2018-12-21T05:11:05.589Z,92.90
2018-12-21T05:13:34.188Z,92.90
2018-12-21T05:16:02.789Z,92.90
2018-12-21T05:18:31.452Z,93.00
2018-12-21T05:20:59.993Z,93.00
2018-12-21T05:23:28.524Z,92.90
2018-12-21T05:25:57.091Z,92.70
2018-12-21T05:28:25.672Z,92.90
2018-12-21T05:30:54.228Z,92.90
2018-12-21T05:33:22.768Z,92.90
2018-12-21T05:35:51.337Z,93.00
2018-12-21T05:38:19.879Z,93.00
2018-12-21T05:40:48.437Z,93.00
2018-12-21T05:43:16.990Z,93.00
2018-12-21T05:45:45.546Z,93.00
2018-12-21T05:48:14.116Z,93.00
2018-12-21T05:50:42.616Z,93.00
2018-12-21T05:53:11.169Z,93.00
2018-12-21T05:55:39.741Z,93.00
2018-12-21T05:58:08.323Z,93.10
2018-12-21T06:00:37.008Z,93.20
2018-12-21T06:03:05.532Z,93.20
2018-12-21T06:05:34.420Z,93.20
2018-12-21T06:08:02.983Z,93.30
2018-12-21T06:10:31.521Z,93.30
2018-12-21T06:13:00.059Z,93.30
2018-12-21T06:15:28.599Z,93.30
2018-12-21T06:17:57.163Z,93.30
2018-12-21T06:20:25.859Z,93.30
2018-12-21T06:22:54.536Z,93.40
2018-12-21T06:25:23.224Z,93.40
2018-12-21T06:27:51.802Z,93.30
2018-12-21T06:30:20.335Z,93.30
2018-12-21T06:32:48.895Z,93.40
2018-12-21T06:35:17.555Z,93.40
2018-12-21T06:37:46.103Z,93.30
2018-12-21T06:43:46.335Z,93.30
2018-12-21T06:46:29.511Z,93.20
2018-12-21T06:48:58.067Z,93.10
2018-12-21T06:51:26.639Z,93.10
2018-12-21T06:53:55.171Z,93.20
2018-12-21T06:56:23.735Z,93.20
2018-12-21T06:58:52.273Z,93.20
2018-12-21T07:01:20.853Z,93.20
2018-12-21T07:03:49.426Z,93.20
2018-12-21T07:06:17.974Z,93.20
2018-12-21T07:08:46.491Z,93.20
2018-12-21T07:11:15.043Z,93.70
2018-12-21T07:13:43.562Z,93.30
2018-12-21T07:16:12.114Z,93.30
2018-12-21T07:18:40.666Z,93.30
2018-12-21T07:21:09.234Z,93.30
2018-12-21T07:23:37.807Z,93.30
2018-12-21T07:26:06.374Z,93.30
2018-12-21T07:28:34.922Z,93.20
2018-12-21T07:31:03.542Z,93.20
2018-12-21T07:33:32.107Z,93.20
2018-12-21T07:36:08.304Z,93.30
2018-12-21T07:38:31.406Z,93.00
2018-12-21T07:40:59.962Z,93.30
2018-12-21T07:43:28.502Z,93.20
2018-12-21T07:45:57.037Z,93.20
2018-12-21T07:48:25.582Z,93.20
2018-12-21T07:50:54.234Z,93.10
2018-12-21T07:53:22.762Z,93.10
2018-12-21T07:55:51.297Z,93.10
2018-12-21T07:58:19.806Z,93.00
2018-12-21T08:00:48.333Z,93.40
2018-12-21T08:03:16.865Z,93.00
2018-12-21T08:05:45.453Z,93.00
2018-12-21T08:08:13.997Z,92.90
2018-12-21T08:10:42.548Z,93.00
2018-12-21T08:13:11.096Z,93.00
2018-12-21T08:15:39.664Z,93.00
2018-12-21T08:18:08.225Z,92.90
2018-12-21T08:20:36.776Z,92.90
2018-12-21T08:23:05.324Z,92.90
2018-12-21T08:25:33.980Z,92.90
2018-12-21T08:28:02.521Z,92.90
2018-12-21T08:30:31.044Z,92.90
2018-12-21T08:32:59.568Z,92.90
2018-12-21T08:35:28.111Z,92.90
2018-12-21T08:37:56.660Z,93.00
2018-12-21T08:40:25.196Z,92.80
2018-12-21T08:42:53.734Z,92.80
2018-12-21T08:45:22.293Z,92.80
2018-12-21T08:47:50.844Z,92.80
2018-12-21T08:50:19.404Z,92.80
2018-12-21T08:52:47.948Z,92.80
2018-12-21T08:55:16.504Z,92.70
2018-12-21T08:57:45.048Z,92.70
2018-12-21T09:00:13.652Z,92.80
2018-12-21T09:02:42.181Z,92.80
2018-12-21T09:05:10.942Z,92.70
2018-12-21T09:07:39.488Z,92.70
2018-12-21T09:10:09.960Z,92.70
2018-12-21T09:12:38.770Z,92.70
2018-12-21T09:15:10.663Z,92.70
2018-12-21T09:17:39.213Z,92.80
2018-12-21T09:20:09.531Z,92.80
2018-12-21T09:22:38.046Z,92.80
2018-12-21T09:25:06.687Z,92.80
2018-12-21T09:27:35.365Z,92.80
2018-12-21T09:30:18.919Z,92.80
2018-12-21T09:32:47.459Z,92.70
2018-12-21T09:35:16.007Z,92.80
2018-12-21T09:37:44.574Z,92.80
2018-12-21T09:40:13.358Z,92.80
2018-12-21T09:42:41.894Z,92.90
2018-12-21T09:45:10.645Z,92.80
2018-12-21T09:47:39.187Z,92.90
2018-12-21T09:50:09.371Z,92.90
2018-12-21T09:52:37.922Z,93.00
2018-12-21T09:55:07.554Z,92.90
2018-12-21T09:57:36.090Z,92.90
2018-12-21T10:00:05.982Z,93.10
2018-12-21T10:02:35.800Z,93.10
2018-12-21T10:05:05.290Z,93.10
2018-12-21T10:07:33.882Z,93.10
2018-12-21T10:10:02.405Z,93.00
2018-12-21T10:12:30.931Z,93.10
2018-12-21T10:14:59.446Z,93.10
2018-12-21T10:17:27.962Z,93.10
2018-12-21T10:19:58.213Z,93.50
2018-12-21T10:22:26.734Z,93.20
2018-12-21T10:24:55.266Z,93.20
2018-12-21T10:27:23.809Z,93.20
2018-12-21T10:29:52.361Z,93.30
2018-12-21T10:32:23.897Z,93.20
2018-12-21T10:34:52.425Z,93.30
2018-12-21T10:37:20.982Z,93.30
2018-12-21T10:39:49.541Z,93.30
2018-12-21T10:42:18.077Z,93.30
2018-12-21T10:44:46.644Z,93.30
2018-12-21T10:47:15.205Z,93.30
2018-12-21T10:49:43.780Z,93.30
2018-12-21T10:52:12.357Z,93.30
2018-12-21T10:54:40.889Z,93.30
2018-12-21T10:57:09.421Z,93.20
2018-12-21T10:59:43.320Z,93.30
2018-12-21T11:02:08.577Z,93.30
2018-12-21T11:04:37.137Z,93.30
2018-12-21T11:07:05.777Z,93.30
2018-12-21T11:09:34.317Z,93.40
2018-12-21T11:12:02.957Z,93.30
2018-12-21T11:14:31.504Z,93.40
2018-12-21T11:17:00.061Z,93.30
2018-12-21T11:19:28.608Z,93.30
2018-12-21T11:21:57.143Z,93.30
2018-12-21T11:24:25.711Z,93.40
2018-12-21T11:26:54.348Z,93.60
2018-12-21T11:29:22.895Z,93.40
2018-12-21T11:31:51.420Z,93.40
2018-12-21T11:34:19.936Z,93.30
2018-12-21T11:36:48.462Z,93.40
2018-12-21T11:39:17.021Z,93.40
2018-12-21T11:41:45.589Z,93.40
2018-12-21T11:46:57.000Z,93.40
2018-12-21T11:49:25.533Z,93.40
2018-12-21T11:51:54.160Z,93.40
2018-12-21T11:54:22.746Z,93.50
2018-12-21T11:56:51.313Z,93.50
2018-12-21T11:59:19.952Z,93.50
2018-12-21T12:01:48.520Z,93.60
2018-12-21T12:04:20.685Z,93.50
2018-12-21T12:06:49.228Z,93.50
2018-12-21T12:09:17.781Z,93.50
2018-12-21T12:11:46.327Z,93.50
2018-12-21T12:14:14.848Z,93.50
2018-12-21T12:16:43.416Z,93.50
2018-12-21T12:19:11.975Z,93.50
2018-12-21T12:21:40.574Z,93.50
2018-12-21T12:24:09.207Z,93.50
2018-12-21T12:26:44.398Z,93.50
2018-12-21T12:29:08.328Z,93.50
2018-12-21T12:31:36.981Z,93.50
2018-12-21T12:34:05.531Z,93.50
2018-12-21T12:36:34.091Z,93.50
2018-12-21T12:39:03.268Z,93.50
2018-12-21T12:41:31.799Z,93.50
2018-12-21T12:44:00.327Z,93.50
2018-12-21T12:46:28.995Z,93.50
2018-12-21T12:48:57.541Z,93.50
2018-12-21T12:51:26.075Z,93.50
2018-12-21T12:53:54.588Z,93.60
2018-12-21T12:56:23.127Z,93.60
2018-12-21T12:58:51.655Z,93.50
2018-12-21T13:01:20.194Z,93.50
2018-12-21T13:03:48.720Z,93.50
2018-12-21T13:06:17.259Z,93.50
2018-12-21T13:08:45.803Z,93.50
2018-12-21T13:11:14.343Z,93.40
2018-12-21T13:13:42.893Z,93.40
2018-12-21T13:16:11.563Z,93.40
2018-12-21T13:19:10.971Z,93.40
2018-12-21T13:21:39.507Z,93.40
2018-12-21T13:24:08.030Z,93.40
2018-12-21T13:26:36.538Z,93.40
2018-12-21T13:29:05.290Z,93.30
2018-12-21T13:31:33.827Z,93.30
2018-12-21T13:34:02.399Z,93.30
2018-12-21T13:36:30.938Z,93.30
2018-12-21T13:38:59.495Z,93.30
2018-12-21T13:41:28.071Z,93.30
2018-12-21T13:43:56.653Z,93.30
2018-12-21T13:46:25.203Z,93.40
2018-12-21T13:48:53.750Z,93.40
2018-12-21T13:51:22.422Z,93.60
2018-12-21T13:53:51.106Z,93.30
2018-12-21T13:56:19.631Z,93.30
2018-12-21T13:58:48.163Z,93.30
2018-12-21T14:01:19.799Z,93.30
2018-12-21T14:03:48.370Z,93.30
2018-12-21T14:06:16.902Z,93.30
2018-12-21T14:08:45.451Z,93.30
2018-12-21T14:11:14.930Z,93.30
2018-12-21T14:13:43.452Z,93.30
2018-12-21T14:16:11.979Z,93.30
2018-12-21T14:18:40.526Z,93.30
2018-12-21T14:21:09.080Z,93.30
2018-12-21T14:23:38.350Z,93.30
2018-12-21T14:26:07.027Z,93.30
2018-12-21T14:28:35.546Z,93.30
2018-12-21T14:31:04.071Z,93.30
2018-12-21T14:33:32.598Z,93.30
2018-12-21T14:36:01.126Z,93.30
2018-12-21T14:38:29.666Z,93.30
2018-12-21T14:40:58.177Z,93.30
2018-12-21T14:43:26.717Z,93.30
2018-12-21T14:45:55.254Z,93.30
2018-12-21T14:48:23.801Z,93.40
2018-12-21T14:50:52.357Z,93.30
2018-12-21T14:53:20.917Z,93.40
2018-12-21T14:55:49.477Z,93.40
2018-12-21T14:58:18.005Z,93.40
2018-12-21T15:00:46.569Z,93.40
2018-12-21T15:03:15.147Z,93.40
2018-12-21T15:05:43.657Z,93.40
2018-12-21T15:08:12.201Z,93.40
2018-12-21T15:10:40.738Z,93.30
2018-12-21T15:13:09.262Z,93.30
2018-12-21T15:15:37.794Z,93.30
2018-12-21T15:18:06.338Z,93.30
2018-12-21T15:20:34.855Z,93.30
2018-12-21T15:23:03.465Z,93.30
2018-12-21T15:25:32.190Z,93.30
2018-12-21T15:28:00.710Z,93.60
2018-12-21T15:30:29.257Z,93.40
2018-12-21T15:32:57.808Z,93.40
2018-12-21T15:35:26.351Z,93.40
2018-12-21T15:37:54.882Z,93.40
2018-12-21T15:40:23.420Z,93.30
2018-12-21T15:42:51.962Z,93.30
2018-12-21T15:45:20.506Z,93.30
2018-12-21T15:47:49.030Z,93.30
2018-12-21T15:50:17.570Z,93.30
2018-12-21T15:52:46.119Z,93.30
2018-12-21T15:55:14.679Z,93.30
2018-12-21T15:57:43.194Z,93.20
2018-12-21T16:00:14.159Z,93.30
2018-12-21T16:02:45.137Z,93.20
2018-12-21T16:05:13.694Z,93.20
2018-12-21T16:07:42.197Z,93.50
2018-12-21T16:10:11.501Z,93.20
2018-12-21T16:12:40.066Z,93.20
2018-12-21T16:15:09.142Z,93.20
2018-12-21T16:17:37.687Z,93.20
2018-12-21T16:20:09.562Z,93.10
2018-12-21T16:22:42.327Z,93.20
2018-12-21T16:25:08.669Z,93.10
2018-12-21T16:27:37.178Z,93.10
2018-12-21T16:30:07.577Z,93.10
2018-12-21T16:32:36.121Z,93.00
2018-12-21T16:35:04.937Z,93.00
2018-12-21T16:37:33.478Z,93.00
2018-12-21T16:40:02.373Z,93.00
2018-12-21T16:42:31.021Z,93.00
2018-12-21T16:44:59.540Z,93.00
2018-12-21T16:47:28.103Z,93.00
2018-12-21T16:49:56.639Z,93.00
2018-12-21T16:52:25.165Z,93.00
2018-12-21T16:54:53.716Z,93.00
2018-12-21T16:57:22.351Z,93.00
2018-12-21T16:59:50.872Z,93.00
2018-12-21T17:02:19.433Z,93.00
2018-12-21T17:04:47.950Z,93.00
2018-12-21T17:07:16.488Z,92.90
2018-12-21T17:09:45.015Z,92.90
2018-12-21T17:12:13.577Z,92.90
2018-12-21T17:14:42.113Z,92.90
2018-12-21T17:17:10.633Z,92.90
2018-12-21T17:19:39.241Z,92.90
2018-12-21T17:22:07.815Z,92.80
2018-12-21T17:24:36.356Z,92.90
2018-12-21T17:27:04.988Z,92.80
2018-12-21T17:29:33.605Z,92.80
2018-12-21T17:32:02.336Z,92.80
2018-12-21T17:34:30.844Z,92.80
2018-12-21T17:36:59.356Z,92.80
2018-12-21T17:39:27.928Z,92.80
2018-12-21T17:41:56.596Z,92.80
2018-12-21T17:44:25.130Z,92.80
2018-12-21T17:46:53.624Z,92.80
2018-12-21T17:49:22.117Z,92.90
2018-12-21T17:51:50.634Z,92.90
2018-12-21T17:54:19.144Z,92.90
2018-12-21T17:56:47.647Z,92.90
2018-12-21T17:59:16.172Z,92.90
2018-12-21T18:01:44.763Z,92.90
2018-12-21T18:04:20.371Z,92.90
2018-12-21T18:06:48.896Z,92.90
2018-12-21T18:09:17.675Z,92.90
2018-12-21T18:11:46.236Z,92.90
2018-12-21T18:14:14.775Z,92.90
2018-12-21T18:16:43.307Z,92.90
2018-12-21T18:19:11.847Z,92.90
2018-12-21T18:22:04.880Z,92.90
2018-12-21T18:24:33.435Z,93.00
2018-12-21T18:27:02.079Z,93.00
2018-12-21T18:29:31.796Z,92.90
2018-12-21T18:32:08.871Z,92.90
2018-12-21T18:34:38.227Z,92.90
2018-12-21T18:37:09.124Z,92.90
2018-12-21T18:39:37.683Z,92.90
2018-12-21T18:42:06.221Z,92.90
2018-12-21T18:44:34.768Z,92.90
2018-12-21T18:47:03.479Z,92.90
2018-12-21T18:49:32.007Z,92.90
2018-12-21T18:52:00.579Z,92.90
2018-12-21T18:54:29.424Z,92.90
2018-12-21T18:57:00.691Z,92.90
2018-12-21T18:59:29.214Z,92.90
2018-12-21T19:01:57.735Z,92.80
2018-12-21T19:04:26.347Z,92.90
2018-12-21T19:06:54.845Z,92.80
2018-12-21T19:09:23.610Z,92.80
2018-12-21T19:11:52.136Z,92.80
2018-12-21T19:14:20.748Z,92.80
2018-12-21T19:16:49.276Z,92.90
2018-12-21T19:19:18.519Z,92.80
2018-12-21T19:21:47.285Z,92.80
2018-12-21T19:24:15.942Z,92.80
2018-12-21T19:26:44.571Z,92.80
2018-12-21T19:29:13.087Z,92.80
2018-12-21T19:31:41.627Z,92.80
2018-12-21T19:34:10.178Z,92.80
2018-12-21T19:36:38.730Z,92.80
2018-12-21T19:39:09.354Z,92.80
2018-12-21T19:41:37.866Z,92.80
2018-12-21T19:44:06.402Z,92.80
2018-12-21T19:46:35.074Z,92.70
2018-12-21T19:49:03.594Z,92.80
2018-12-21T19:51:32.110Z,93.20
2018-12-21T19:54:00.850Z,92.80
2018-12-21T19:57:33.478Z,92.80
2018-12-21T20:00:02.007Z,92.80
2018-12-21T20:02:30.570Z,92.70
2018-12-21T20:04:59.121Z,92.70
2018-12-21T20:07:27.661Z,92.70
2018-12-21T20:09:57.065Z,92.70
2018-12-21T20:12:25.608Z,92.70
2018-12-21T20:14:54.166Z,92.80
2018-12-21T20:17:22.701Z,92.70
2018-12-21T20:19:51.221Z,92.70
2018-12-21T20:22:19.761Z,92.70
2018-12-21T20:24:48.317Z,92.70
2018-12-21T20:27:17.621Z,92.70
2018-12-21T20:29:46.489Z,92.80
2018-12-21T20:32:15.585Z,92.80
2018-12-21T20:34:44.141Z,92.80
2018-12-21T20:37:12.857Z,92.70
2018-12-21T20:39:44.328Z,92.80
2018-12-21T20:42:12.864Z,92.70
2018-12-21T20:44:41.592Z,92.70
2018-12-21T20:47:10.145Z,92.80
2018-12-21T20:49:38.696Z,92.80
2018-12-21T20:52:07.236Z,92.80
2018-12-21T20:54:35.933Z,92.80
2018-12-21T20:57:06.459Z,92.80
2018-12-21T20:59:35.027Z,92.80
2018-12-21T21:02:03.618Z,92.90
2018-12-21T21:04:32.175Z,92.90
2018-12-21T21:07:00.746Z,92.80
2018-12-21T21:09:29.295Z,92.80
2018-12-21T21:11:57.863Z,92.80
2018-12-21T21:14:26.407Z,92.80
2018-12-21T21:16:54.935Z,92.80
2018-12-21T21:19:24.655Z,92.80
2018-12-21T21:21:53.202Z,92.80
2018-12-21T21:24:21.867Z,92.80
2018-12-21T21:26:50.404Z,92.80
2018-12-21T21:29:18.926Z,92.90
2018-12-21T21:31:48.307Z,93.00
2018-12-21T21:34:16.870Z,93.00
2018-12-21T21:36:45.412Z,93.00
2018-12-21T21:39:13.948Z,93.00
2018-12-21T21:41:42.610Z,92.90
2018-12-21T21:44:11.263Z,93.00
2018-12-21T21:46:39.792Z,92.90
2018-12-21T21:49:08.314Z,93.00
2018-12-21T21:51:36.947Z,93.00
2018-12-21T21:54:05.469Z,92.90
2018-12-21T21:56:33.963Z,93.00
2018-12-21T21:59:02.494Z,93.00
2018-12-21T22:01:31.059Z,93.00
2018-12-21T22:04:01.277Z,93.00
2018-12-21T22:06:29.826Z,93.00
2018-12-21T22:08:58.334Z,93.00
2018-12-21T22:11:26.878Z,93.00
2018-12-21T22:13:55.435Z,93.00
2018-12-21T22:16:23.986Z,93.00
2018-12-21T22:18:52.526Z,93.00
2018-12-21T22:21:21.082Z,93.10
2018-12-21T22:23:49.742Z,93.10
2018-12-21T22:26:18.273Z,93.10
2018-12-21T22:28:46.805Z,93.10
2018-12-21T22:31:15.341Z,93.10
2018-12-21T22:33:43.890Z,93.10
2018-12-21T22:36:12.432Z,93.10
2018-12-21T22:38:41.009Z,93.10
2018-12-21T22:41:09.541Z,93.10
2018-12-21T22:43:38.101Z,93.10
2018-12-21T22:46:06.916Z,93.10
2018-12-21T22:48:35.744Z,93.00
2018-12-21T22:51:04.420Z,93.10
2018-12-21T22:53:32.973Z,93.10
2018-12-21T22:56:01.509Z,93.10
2018-12-21T22:58:30.024Z,93.00
2018-12-21T23:00:58.704Z,93.00
2018-12-21T23:03:27.244Z,93.00
2018-12-21T23:05:55.768Z,93.00
2018-12-21T23:08:24.332Z,93.00
2018-12-21T23:10:52.888Z,93.00
2018-12-21T23:13:21.403Z,93.00
2018-12-21T23:15:49.959Z,93.00
2018-12-21T23:18:18.491Z,93.00
2018-12-21T23:20:47.191Z,93.00
2018-12-21T23:23:15.948Z,93.00
2018-12-21T23:25:44.491Z,93.00
2018-12-21T23:28:13.027Z,93.00
2018-12-21T23:30:41.558Z,93.00
2018-12-21T23:33:10.120Z,93.10
2018-12-21T23:35:38.667Z,93.00
2018-12-21T23:38:07.214Z,93.00
2018-12-21T23:40:36.459Z,93.00
2018-12-21T23:43:05.007Z,93.10
2018-12-21T23:45:33.535Z,93.40
2018-12-21T23:48:02.087Z,93.10
2018-12-21T23:50:30.604Z,93.10
2018-12-21T23:52:59.191Z,93.10
2018-12-21T23:55:27.727Z,93.00
2018-12-21T23:57:56.253Z,93.00
